Time;durP1;ratioP1;P1;durP2;ratioP2;P2;SDS_P1;SDS_P2;PMS_P1;PMS_P2;Temp;Humidity;BMP_temperature;BMP_pressure;BME280_temperature;BME280_humidity;BME280_pressure;Samples;Min_cycle;Max_cycle;Signal;HPM_P1;HPM_P2
2024/02/25 00:04:44;;;;;;;4.93;2.80;;;;;;;;;;4808693;29;20115;-82
2024/02/25 00:12:18;;;;;;;5.10;2.60;;;;;;;;;;4809782;30;20022;-81
2024/02/25 00:16:22;;;;;;;6.65;2.50;;;;;;;;;;4788630;30;20153;-82
2024/02/25 00:20:11;;;;;;;4.68;2.42;;;;;;;;;;4809223;30;20103;-81
2024/02/25 00:28:17;;;;;;;4.82;2.53;;;;;;;;;;4751274;30;20104;-82
2024/02/25 00:36:27;;;;;;;4.35;2.20;;;;;;;;;;4756427;30;20045;-82
2024/02/25 00:39:50;;;;;;;6.65;2.35;;;;;;;;;;4758735;30;20045;-82
2024/02/25 00:43:45;;;;;;;5.82;2.03;;;;;;;;;;4740159;30;20074;-82
2024/02/25 00:50:48;;;;;;;5.18;2.10;;;;;;;;;;4734655;30;20059;-82
2024/02/25 00:54:44;;;;;;;3.28;1.80;;;;;;;;;;4730974;30;20044;-82
2024/02/25 00:57:30;;;;;;;4.10;1.80;;;;;;;;;;4812133;29;20464;-82
2024/02/25 01:00:32;;;;;;;3.80;1.90;;;;;;;;;;4809002;29;20039;-83
2024/02/25 01:03:39;;;;;;;21.83;2.90;;;;;;;;;;4832005;29;20049;-82
2024/02/25 01:06:57;;;;;;;6.50;1.83;;;;;;;;;;4862718;29;20049;-82
2024/02/25 01:10:03;;;;;;;4.63;1.65;;;;;;;;;;4875769;29;20052;-81
2024/02/25 01:14:10;;;;;;;;;;;;;;;;;;;;;
2024/02/25 01:17:33;;;;;;;3.35;1.52;;;;;;;;;;4810626;29;20042;-82
2024/02/25 01:20:22;;;;;;;3.45;1.63;;;;;;;;;;4822614;29;20058;-82
2024/02/25 01:23:06;;;;;;;3.53;1.75;;;;;;;;;;4806891;29;20084;-82
2024/02/25 01:26:02;;;;;;;3.28;1.50;;;;;;;;;;4829722;29;20048;-82
2024/02/25 01:28:54;;;;;;;4.13;1.50;;;;;;;;;;4841327;29;20175;-82
2024/02/25 01:31:42;;;;;;;4.90;1.70;;;;;;;;;;4830253;29;20046;-82
2024/02/25 01:34:25;;;;;;;3.95;1.67;;;;;;;;;;4844039;29;20045;-81
2024/02/25 01:36:57;;;;;;;5.95;1.88;;;;;;;;;;4858738;29;20049;-82
2024/02/25 01:39:49;;;;;;;3.17;1.50;;;;;;;;;;4834834;29;20056;-82
2024/02/25 01:43:18;;;;;;;4.30;1.90;;;;;;;;;;4859383;29;20037;-81
2024/02/25 01:46:18;;;;;;;5.57;1.60;;;;;;;;;;4831705;29;20050;-82
2024/02/25 01:48:58;;;;;;;5.10;2.05;;;;;;;;;;4844704;29;20026;-83
2024/02/25 01:55:54;;;;;;;2.33;1.35;;;;;;;;;;4952603;29;20067;-80
2024/02/25 01:58:38;;;;;;;4.93;1.50;;;;;;;;;;4946256;29;20043;-81
2024/02/25 02:02:23;;;;;;;4.55;1.60;;;;;;;;;;4940000;29;20113;-81
2024/02/25 02:05:44;;;;;;;3.85;1.58;;;;;;;;;;4932901;29;20095;-82
2024/02/25 02:08:20;;;;;;;4.22;1.90;;;;;;;;;;4907183;29;20035;-81
2024/02/25 02:11:20;;;;;;;4.05;1.80;;;;;;;;;;4940382;29;20032;-83
2024/02/25 02:14:03;;;;;;;3.20;1.60;;;;;;;;;;4939464;29;20035;-82
2024/02/25 02:16:43;;;;;;;4.55;1.80;;;;;;;;;;4934589;29;20062;-82
2024/02/25 02:19:21;;;;;;;4.13;1.55;;;;;;;;;;4920687;29;20035;-82
2024/02/25 02:22:09;;;;;;;2.85;1.30;;;;;;;;;;4935284;29;20039;-81
2024/02/25 02:24:49;;;;;;;3.70;1.30;;;;;;;;;;4922783;29;20024;-83
2024/02/25 02:27:44;;;;;;;2.63;1.27;;;;;;;;;;4926096;29;20031;-82
2024/02/25 02:30:12;;;;;;;3.67;1.58;;;;;;;;;;4922415;29;20028;-82
2024/02/25 02:32:51;;;;;;;2.97;1.50;;;;;;;;;;4922358;29;20039;-81
2024/02/25 02:38:46;;;;;;;2.17;1.17;;;;;;;;;;4955609;29;20055;-82
2024/02/25 02:41:25;;;;;;;4.88;1.90;;;;;;;;;;4939902;29;20036;-83
2024/02/25 02:43:58;;;;;;;;;;;;;;;;;;4923206;29;20051;-81
2024/02/25 02:46:50;;;;;;;;;;;;;;;;;;;;;
2024/02/25 02:49:57;;;;;;;2.88;1.20;;;;;;;;;;4935606;29;20039;-82
2024/02/25 02:52:54;;;;;;;2.80;1.20;;;;;;;;;;4958255;29;20309;-81
2024/02/25 02:55:36;;;;;;;3.80;1.42;;;;;;;;;;4936149;29;20514;-81
2024/02/25 02:58:18;;;;;;;2.75;1.30;;;;;;;;;;4912085;29;20043;-81
2024/02/25 03:01:05;;;;;;;3.63;1.45;;;;;;;;;;4927539;29;20075;-82
2024/02/25 03:06:37;;;;;;;4.68;1.85;;;;;;;;;;5053249;23;20058;-81
2024/02/25 03:09:29;;;;;;;6.63;2.50;;;;;;;;;;4961910;28;20039;-82
2024/02/25 03:12:15;;;;;;;4.15;1.70;;;;;;;;;;4995336;28;20031;-81
2024/02/25 03:14:47;;;;;;;4.57;1.88;;;;;;;;;;4955071;28;20038;-82
2024/02/25 03:17:29;;;;;;;4.90;2.17;;;;;;;;;;4989888;28;20035;-82
2024/02/25 03:20:12;;;;;;;2.67;1.00;;;;;;;;;;4962981;28;20086;-82
2024/02/25 03:22:51;;;;;;;5.57;1.10;;;;;;;;;;4988405;28;20082;-82
2024/02/25 03:25:43;;;;;;;2.22;1.00;;;;;;;;;;4947986;28;20031;-82
2024/02/25 03:28:33;;;;;;;2.75;1.10;;;;;;;;;;4980510;28;20094;-82
2024/02/25 03:31:14;;;;;;;3.17;0.93;;;;;;;;;;4996043;28;20106;-82
2024/02/25 03:33:51;;;;;;;2.53;1.15;;;;;;;;;;4979741;28;20031;-82
2024/02/25 03:36:23;;;;;;;1.80;0.80;;;;;;;;;;4976882;28;20027;-82
2024/02/25 03:38:59;;;;;;;4.00;1.60;;;;;;;;;;4973379;28;20039;-83
2024/02/25 03:41:46;;;;;;;2.58;1.08;;;;;;;;;;4973665;28;20038;-82
2024/02/25 03:44:21;;;;;;;2.97;1.10;;;;;;;;;;4976737;28;20050;-83
2024/02/25 03:47:10;;;;;;;4.38;1.42;;;;;;;;;;4995719;28;20030;-82
2024/02/25 03:50:10;;;;;;;1.25;0.63;;;;;;;;;;4977072;28;20027;-80
2024/02/25 03:52:48;;;;;;;3.00;0.80;;;;;;;;;;4977583;28;20062;-83
2024/02/25 03:55:31;;;;;;;1.98;0.93;;;;;;;;;;4996562;28;20038;-81
2024/02/25 03:58:20;;;;;;;1.70;0.60;;;;;;;;;;4994852;28;20054;-82
2024/02/25 04:01:22;;;;;;;2.15;0.85;;;;;;;;;;4997724;28;20060;-81
2024/02/25 04:04:25;;;;;;;1.77;0.93;;;;;;;;;;4996135;28;20042;-82
2024/02/25 04:06:55;;;;;;;2.60;0.98;;;;;;;;;;4966724;28;20050;-83
2024/02/25 04:09:35;;;;;;;3.60;1.20;;;;;;;;;;5016219;28;20031;-82
2024/02/25 04:12:16;;;;;;;1.92;0.85;;;;;;;;;;4994568;28;20116;-82
2024/02/25 04:14:46;;;;;;;2.38;0.73;;;;;;;;;;4982564;28;20046;-82
2024/02/25 04:17:44;;;;;;;5.15;1.10;;;;;;;;;;5016431;28;20030;-82
2024/02/25 04:20:24;;;;;;;4.57;1.50;;;;;;;;;;4984684;28;20068;-82
2024/02/25 04:23:25;;;;;;;2.97;1.17;;;;;;;;;;5002275;28;20018;-82
2024/02/25 04:26:12;;;;;;;3.70;1.17;;;;;;;;;;5001294;28;20425;-82
2024/02/25 04:29:34;;;;;;;1.73;0.77;;;;;;;;;;4997826;28;20042;-82
2024/02/25 04:32:24;;;;;;;1.25;0.60;;;;;;;;;;4969594;28;20033;-82
2024/02/25 04:35:12;;;;;;;1.55;0.70;;;;;;;;;;4980674;28;20022;-82
2024/02/25 04:38:12;;;;;;;1.48;0.70;;;;;;;;;;4985303;28;20038;-82
2024/02/25 04:40:47;;;;;;;4.88;0.80;;;;;;;;;;4999057;28;20077;-81
2024/02/25 04:43:32;;;;;;;1.92;0.90;;;;;;;;;;4999497;28;20050;-82
2024/02/25 04:46:28;;;;;;;1.48;0.70;;;;;;;;;;4999184;28;20072;-82
2024/02/25 04:49:31;;;;;;;3.08;0.70;;;;;;;;;;4999333;28;20033;-82
2024/02/25 04:52:15;;;;;;;2.35;0.75;;;;;;;;;;4980193;28;20019;-81
2024/02/25 04:55:18;;;;;;;2.95;1.02;;;;;;;;;;5021990;23;20044;-83
2024/02/25 04:58:56;;;;;;;1.85;0.90;;;;;;;;;;4957225;29;20032;-82
2024/02/25 05:02:08;;;;;;;4.70;0.88;;;;;;;;;;4939155;29;20063;-81
2024/02/25 05:04:53;;;;;;;2.47;0.80;;;;;;;;;;4955757;29;20062;-81
2024/02/25 05:07:23;;;;;;;1.80;0.90;;;;;;;;;;4925720;29;20068;-82
2024/02/25 05:09:57;;;;;;;5.38;1.20;;;;;;;;;;4911024;29;20087;-81
2024/02/25 05:12:38;;;;;;;2.65;0.82;;;;;;;;;;4941719;29;20064;-82
2024/02/25 05:15:23;;;;;;;1.63;0.90;;;;;;;;;;4940304;29;20104;-82
2024/02/25 05:18:41;;;;;;;1.95;0.90;;;;;;;;;;4959457;28;20044;-82
2024/02/25 05:21:44;;;;;;;1.75;0.80;;;;;;;;;;4924077;29;20020;-83
2024/02/25 05:24:18;;;;;;;2.15;0.93;;;;;;;;;;4927478;29;20028;-81
2024/02/25 05:27:28;;;;;;;;;;;;;;;;;;;;;
2024/02/25 05:30:15;;;;;;;1.75;0.70;;;;;;;;;;4957554;29;20095;-83
2024/02/25 05:33:03;;;;;;;1.48;0.82;;;;;;;;;;4958121;29;20039;-82
2024/02/25 05:36:25;;;;;;;2.42;0.88;;;;;;;;;;4936813;29;20044;-81
2024/02/25 05:40:17;;;;;;;2.40;1.10;;;;;;;;;;4958224;29;20026;-81
2024/02/25 05:42:57;;;;;;;2.15;0.98;;;;;;;;;;4932782;29;20032;-82
2024/02/25 05:46:15;;;;;;;2.58;1.00;;;;;;;;;;4954967;29;20028;-83
2024/02/25 05:49:00;;;;;;;1.52;0.85;;;;;;;;;;4934842;29;20022;-83
2024/02/25 05:51:55;;;;;;;1.92;0.90;;;;;;;;;;4925387;29;20028;-82
2024/02/25 05:54:35;;;;;;;2.58;1.23;;;;;;;;;;4938163;29;20046;-82
2024/02/25 05:57:47;;;;;;;2.33;0.95;;;;;;;;;;4955801;29;20035;-81
2024/02/25 06:00:22;;;;;;;3.78;1.08;;;;;;;;;;4938709;29;20031;-82
2024/02/25 06:03:02;;;;;;;1.85;1.05;;;;;;;;;;4925792;29;20031;-82
2024/02/25 06:05:44;;;;;;;3.17;1.27;;;;;;;;;;4924246;29;20043;-83
2024/02/25 06:08:15;;;;;;;3.22;1.25;;;;;;;;;;4923311;29;20039;-82
2024/02/25 06:10:43;;;;;;;2.47;0.82;;;;;;;;;;4923968;29;20400;-82
2024/02/25 06:13:18;;;;;;;2.03;1.10;;;;;;;;;;4940265;29;20624;-82
2024/02/25 06:16:07;;;;;;;2.38;1.05;;;;;;;;;;4971284;29;20035;-82
2024/02/25 06:18:50;;;;;;;2.40;1.30;;;;;;;;;;4941264;29;20059;-83
2024/02/25 06:22:21;;;;;;;2.47;1.10;;;;;;;;;;4939890;29;20072;-83
2024/02/25 06:25:57;;;;;;;2.67;1.20;;;;;;;;;;4958232;29;20047;-81
2024/02/25 06:29:57;;;;;;;2.45;1.33;;;;;;;;;;4901711;29;20029;-82
2024/02/25 06:36:11;;;;;;;2.30;1.15;;;;;;;;;;4976339;29;20434;-83
2024/02/25 06:39:17;;;;;;;3.00;1.20;;;;;;;;;;4957085;29;20441;-83
2024/02/25 06:42:41;;;;;;;4.80;1.70;;;;;;;;;;4964640;29;20038;-81
2024/02/25 06:46:06;;;;;;;2.67;1.20;;;;;;;;;;4976577;29;20079;-82
2024/02/25 06:49:04;;;;;;;2.75;1.50;;;;;;;;;;4964457;29;20034;-83
2024/02/25 06:52:26;;;;;;;2.92;1.45;;;;;;;;;;4977659;29;20058;-80
2024/02/25 06:55:11;;;;;;;2.95;1.30;;;;;;;;;;4989027;28;20035;-82
2024/02/25 06:58:12;;;;;;;4.07;1.52;;;;;;;;;;4979215;28;20030;-83
2024/02/25 07:01:25;;;;;;;2.28;1.38;;;;;;;;;;4977144;28;20062;-84
2024/02/25 07:04:22;;;;;;;4.22;1.63;;;;;;;;;;4986459;28;20097;-82
2024/02/25 07:07:30;;;;;;;3.15;1.25;;;;;;;;;;4965358;28;20517;-82
2024/02/25 07:10:22;;;;;;;4.60;1.65;;;;;;;;;;4968143;28;20042;-82
2024/02/25 07:13:37;;;;;;;3.53;1.63;;;;;;;;;;4991246;28;20035;-82
2024/02/25 07:16:36;;;;;;;3.67;1.73;;;;;;;;;;4971425;28;20035;-83
2024/02/25 07:19:10;;;;;;;2.97;1.52;;;;;;;;;;4959764;28;20041;-82
2024/02/25 07:21:51;;;;;;;3.22;1.60;;;;;;;;;;4959981;28;20066;-82
2024/02/25 07:24:30;;;;;;;2.80;1.40;;;;;;;;;;4956107;28;20102;-82
2024/02/25 07:27:22;;;;;;;3.03;1.55;;;;;;;;;;4955953;28;20054;-82
2024/02/25 07:29:51;;;;;;;3.08;1.40;;;;;;;;;;4939349;28;20121;-82
2024/02/25 07:32:25;;;;;;;4.63;1.52;;;;;;;;;;4953272;28;20039;-81
2024/02/25 07:35:00;;;;;;;2.92;1.45;;;;;;;;;;4949009;28;20047;-83
2024/02/25 07:37:34;;;;;;;2.47;1.48;;;;;;;;;;4954488;28;20394;-82
2024/02/25 07:40:02;;;;;;;;;;;;;;;;;;4954279;28;20050;-83
2024/02/25 07:42:42;;;;;;;2.78;1.23;;;;;;;;;;4971361;28;20393;-82
2024/02/25 07:45:15;;;;;;;4.15;1.60;;;;;;;;;;4969991;28;20037;-84
2024/02/25 07:47:51;;;;;;;4.70;1.63;;;;;;;;;;4954669;28;20388;-83
2024/02/25 07:50:25;;;;;;;3.38;1.60;;;;;;;;;;4939720;28;20033;-83
2024/02/25 07:53:28;;;;;;;5.55;2.17;;;;;;;;;;4971696;28;20059;-82
2024/02/25 07:56:19;;;;;;;3.30;1.57;;;;;;;;;;4973635;28;20026;-82
2024/02/25 07:59:04;;;;;;;;;;;;;;;;;;;;;
2024/02/25 08:02:07;;;;;;;4.05;1.70;;;;;;;;;;4991568;28;20039;-83
2024/02/25 08:04:52;;;;;;;7.72;1.90;;;;;;;;;;4989997;28;20039;-82
2024/02/25 08:07:29;;;;;;;2.78;1.30;;;;;;;;;;4975673;28;20034;-83
2024/02/25 08:10:03;;;;;;;3.17;1.60;;;;;;;;;;4960998;28;20035;-81
2024/02/25 08:12:44;;;;;;;2.85;1.38;;;;;;;;;;4959374;28;20043;-81
2024/02/25 08:15:34;;;;;;;4.13;1.50;;;;;;;;;;4990725;28;20049;-82
2024/02/25 08:18:08;;;;;;;3.58;1.70;;;;;;;;;;4957424;28;20043;-82
2024/02/25 08:20:37;;;;;;;3.08;1.50;;;;;;;;;;4945923;28;20039;-83
2024/02/25 08:23:38;;;;;;;2.63;1.38;;;;;;;;;;4971090;28;20082;-82
2024/02/25 08:26:46;;;;;;;5.05;1.60;;;;;;;;;;4989128;28;20027;-83
2024/02/25 08:29:36;;;;;;;3.03;1.42;;;;;;;;;;4964618;28;20099;-82
2024/02/25 08:32:42;;;;;;;4.25;1.63;;;;;;;;;;4980133;28;20031;-81
2024/02/25 08:35:48;;;;;;;5.10;1.88;;;;;;;;;;4978624;28;20050;-83
2024/02/25 08:39:01;;;;;;;4.40;1.90;;;;;;;;;;4995734;28;20027;-81
2024/02/25 08:42:26;;;;;;;4.57;1.50;;;;;;;;;;4946565;28;20047;-83
2024/02/25 08:45:31;;;;;;;4.70;1.95;;;;;;;;;;4982895;28;20046;-83
2024/02/25 08:52:03;;;;;;;3.88;1.83;;;;;;;;;;4995644;28;20034;-83
2024/02/25 08:55:07;;;;;;;4.10;1.92;;;;;;;;;;4992708;28;20102;-82
2024/02/25 08:58:17;;;;;;;3.63;1.95;;;;;;;;;;4970781;28;20109;-82
2024/02/25 09:01:18;;;;;;;3.15;1.73;;;;;;;;;;4984101;28;20034;-83
2024/02/25 09:04:30;;;;;;;3.42;1.75;;;;;;;;;;4994926;28;20045;-83
2024/02/25 09:07:36;;;;;;;;;;;;;;;;;;4997486;28;20026;-82
2024/02/25 09:10:34;;;;;;;3.80;1.85;;;;;;;;;;4993748;28;19953;-82
2024/02/25 09:13:25;;;;;;;4.78;2.20;;;;;;;;;;4969461;28;20106;-81
2024/02/25 09:16:02;;;;;;;5.95;1.80;;;;;;;;;;4977064;28;20035;-82
2024/02/25 09:18:48;;;;;;;;;;;;;;;;;;;;;
2024/02/25 09:21:25;;;;;;;6.35;2.60;;;;;;;;;;4961530;28;20043;-82
2024/02/25 09:24:15;;;;;;;5.82;2.63;;;;;;;;;;4995789;28;20039;-83
2024/02/25 09:27:00;;;;;;;4.97;2.40;;;;;;;;;;4947330;28;20110;-82
2024/02/25 09:29:58;;;;;;;4.85;2.20;;;;;;;;;;4962283;28;20038;-82
2024/02/25 09:32:54;;;;;;;;;;;;;;;;;;4995750;28;20074;-83
2024/02/25 09:35:48;;;;;;;4.85;2.65;;;;;;;;;;4963425;28;19914;-83
2024/02/25 09:38:36;;;;;;;6.43;2.70;;;;;;;;;;4977628;28;20053;-81
2024/02/25 09:41:51;;;;;;;5.15;2.30;;;;;;;;;;4990839;28;20041;-82
2024/02/25 09:44:28;;;;;;;7.93;3.33;;;;;;;;;;4979536;28;20035;-82
2024/02/25 09:47:25;;;;;;;5.72;2.20;;;;;;;;;;4969584;28;20027;-83
2024/02/25 09:50:57;;;;;;;5.85;2.20;;;;;;;;;;4994431;28;20043;-82
2024/02/25 09:54:33;;;;;;;6.05;2.67;;;;;;;;;;5192588;23;20085;-83
2024/02/25 09:57:30;;;;;;;7.40;2.80;;;;;;;;;;4991947;28;20126;-83
2024/02/25 10:00:07;;;;;;;;;;;;;;;;;;4980456;28;20031;-83
2024/02/25 10:03:17;;;;;;;6.45;2.60;;;;;;;;;;4958402;28;19918;-82
2024/02/25 10:06:04;;;;;;;6.70;2.50;;;;;;;;;;4945253;29;20035;-83
2024/02/25 10:08:53;;;;;;;5.75;3.00;;;;;;;;;;4930420;29;20042;-83
2024/02/25 10:11:39;;;;;;;6.45;3.10;;;;;;;;;;4976586;29;20031;-82
2024/02/25 10:14:21;;;;;;;5.95;2.80;;;;;;;;;;4976261;28;20019;-83
2024/02/25 10:17:15;;;;;;;9.68;2.80;;;;;;;;;;4951433;29;20110;-82
2024/02/25 10:20:20;;;;;;;7.32;3.20;;;;;;;;;;4972168;29;20032;-81
2024/02/25 10:23:10;;;;;;;5.57;2.50;;;;;;;;;;4959527;29;20054;-83
2024/02/25 10:26:32;;;;;;;6.53;3.00;;;;;;;;;;4937212;29;20051;-83
2024/02/25 10:29:15;;;;;;;7.43;2.78;;;;;;;;;;4936342;29;20036;-82
2024/02/25 10:32:13;;;;;;;6.30;2.90;;;;;;;;;;4936235;29;20056;-82
2024/02/25 10:35:19;;;;;;;5.55;2.80;;;;;;;;;;4934227;29;20052;-82
2024/02/25 10:38:00;;;;;;;7.70;3.05;;;;;;;;;;4933136;29;20040;-82
2024/02/25 10:41:14;;;;;;;7.00;2.72;;;;;;;;;;4922096;29;20049;-83
2024/02/25 10:43:58;;;;;;;5.80;2.95;;;;;;;;;;4933867;29;20063;-82
2024/02/25 10:50:06;;;;;;;6.25;2.65;;;;;;;;;;4933953;29;20040;-83
2024/02/25 10:52:55;;;;;;;5.78;3.00;;;;;;;;;;4919352;29;20039;-82
2024/02/25 10:55:53;;;;;;;5.47;2.70;;;;;;;;;;4919288;29;20134;-82
2024/02/25 10:59:00;;;;;;;7.10;3.13;;;;;;;;;;4932175;29;20044;-83
2024/02/25 11:01:44;;;;;;;7.70;3.22;;;;;;;;;;4919023;29;20072;-83
2024/02/25 11:04:45;;;;;;;7.20;3.30;;;;;;;;;;4962238;29;20126;-83
2024/02/25 11:07:51;;;;;;;6.75;3.15;;;;;;;;;;4975929;29;20019;-83
2024/02/25 11:10:45;;;;;;;5.90;2.63;;;;;;;;;;4974264;28;20032;-83
2024/02/25 11:13:55;;;;;;;6.13;2.05;;;;;;;;;;4977436;28;20038;-83
2024/02/25 11:17:25;;;;;;;4.65;2.30;;;;;;;;;;4956184;29;20031;-82
2024/02/25 11:20:33;;;;;;;5.00;2.10;;;;;;;;;;4951862;29;20055;-83
2024/02/25 11:23:29;;;;;;;5.97;2.30;;;;;;;;;;4943952;29;20050;-83
2024/02/25 11:27:17;;;;;;;6.00;2.30;;;;;;;;;;4972870;29;20027;-82
2024/02/25 11:30:47;;;;;;;4.90;2.20;;;;;;;;;;4968524;29;20047;-82
2024/02/25 11:51:04;;;;;;;5.03;1.92;;;;;;;;;;4921031;29;20040;-83
2024/02/25 11:54:17;;;;;;;6.57;1.95;;;;;;;;;;4877415;29;20045;-83
2024/02/25 11:58:13;;;;;;;4.83;2.20;;;;;;;;;;4901750;29;20027;-83
2024/02/25 12:01:55;;;;;;;5.32;2.40;;;;;;;;;;4866282;29;20041;-83
2024/02/25 12:09:32;;;;;;;9.05;1.88;;;;;;;;;;4884374;29;20128;-81
2024/02/25 12:12:48;;;;;;;5.57;1.75;;;;;;;;;;4870421;29;20046;-83
2024/02/25 12:17:00;;;;;;;4.82;1.92;;;;;;;;;;4889290;29;20096;-82
2024/02/25 12:24:13;;;;;;;5.35;2.10;;;;;;;;;;4909932;29;19965;-82
2024/02/25 12:27:59;;;;;;;3.38;1.80;;;;;;;;;;4921352;29;20017;-82
2024/02/25 12:35:34;;;;;;;4.88;1.75;;;;;;;;;;4883047;29;20089;-83
2024/02/25 12:46:33;;;;;;;2.35;1.00;;;;;;;;;;5408698;23;20072;-83
2024/02/25 12:50:19;;;;;;;1.60;0.82;;;;;;;;;;4920947;29;20048;-84
2024/02/25 12:54:15;;;;;;;2.88;1.10;;;;;;;;;;4902726;29;20043;-83
2024/02/25 13:11:27;;;;;;;3.03;0.90;;;;;;;;;;5178529;23;20042;-83
2024/02/25 13:33:09;;;;;;;2.88;0.93;;;;;;;;;;5632533;23;20066;-81
2024/02/25 13:40:05;;;;;;;3.30;1.05;;;;;;;;;;4994956;28;20057;-82
2024/02/25 13:43:47;;;;;;;2.65;0.93;;;;;;;;;;4974602;28;20066;-82
2024/02/25 13:46:36;;;;;;;2.20;0.90;;;;;;;;;;4977779;28;20039;-82
2024/02/25 13:49:36;;;;;;;4.47;1.38;;;;;;;;;;4962625;28;20039;-82
2024/02/25 13:53:21;;;;;;;3.03;1.42;;;;;;;;;;4996227;28;20066;-82
2024/02/25 13:56:44;;;;;;;5.68;1.42;;;;;;;;;;4993792;28;20039;-81
2024/02/25 13:59:46;;;;;;;1.17;0.70;;;;;;;;;;4994361;28;20026;-83
2024/02/25 14:02:43;;;;;;;2.20;0.80;;;;;;;;;;4976244;28;20043;-82
2024/02/25 14:05:26;;;;;;;2.13;0.95;;;;;;;;;;4977241;28;20038;-82
2024/02/25 14:08:25;;;;;;;2.20;0.75;;;;;;;;;;4995453;28;20090;-83
2024/02/25 14:15:06;;;;;;;1.55;0.60;;;;;;;;;;4980404;28;20031;-82
2024/02/25 14:18:29;;;;;;;1.83;0.90;;;;;;;;;;4918958;28;20025;-81
2024/02/25 14:22:03;;;;;;;1.50;0.70;;;;;;;;;;4994709;28;20041;-83
2024/02/25 14:25:14;;;;;;;4.45;0.95;;;;;;;;;;4994973;28;20030;-83
2024/02/25 14:28:57;;;;;;;2.40;0.70;;;;;;;;;;4991132;28;20035;-83
2024/02/25 14:35:33;;;;;;;3.20;1.23;;;;;;;;;;4944393;28;20015;-82
2024/02/25 14:42:31;;;;;;;1.67;0.70;;;;;;;;;;4985655;28;20035;-82
2024/02/25 14:46:30;;;;;;;3.58;0.80;;;;;;;;;;4982930;28;20409;-81
2024/02/25 14:49:39;;;;;;;2.78;0.93;;;;;;;;;;4958075;28;20050;-82
2024/02/25 14:53:26;;;;;;;1.70;0.70;;;;;;;;;;4974977;28;20100;-82
2024/02/25 14:56:55;;;;;;;1.50;0.63;;;;;;;;;;4996300;28;20049;-82
2024/02/25 15:00:31;;;;;;;1.33;0.52;;;;;;;;;;4980815;28;20035;-82
2024/02/25 15:03:38;;;;;;;1.15;0.50;;;;;;;;;;4981588;28;20100;-83
2024/02/25 15:06:52;;;;;;;0.52;0.40;;;;;;;;;;4946677;28;20099;-82
2024/02/25 15:10:44;;;;;;;1.10;0.50;;;;;;;;;;4999545;28;20045;-82
2024/02/25 15:13:51;;;;;;;1.75;0.65;;;;;;;;;;4977717;28;20058;-83
2024/02/25 15:17:16;;;;;;;1.35;0.60;;;;;;;;;;4996536;28;20031;-81
2024/02/25 15:26:43;;;;;;;3.22;0.90;;;;;;;;;;5921205;23;20054;-83
2024/02/25 15:29:57;;;;;;;1.38;0.50;;;;;;;;;;5013579;28;20049;-81
2024/02/25 15:33:11;;;;;;;1.80;0.73;;;;;;;;;;4985249;28;20030;-82
2024/02/25 15:35:56;;;;;;;2.13;0.73;;;;;;;;;;4979232;28;20039;-82
2024/02/25 15:38:41;;;;;;;2.47;0.88;;;;;;;;;;4997518;28;20029;-81
2024/02/25 15:41:59;;;;;;;3.47;1.00;;;;;;;;;;4982383;28;20042;-82
2024/02/25 15:44:53;;;;;;;2.08;0.95;;;;;;;;;;4978600;28;20047;-83
2024/02/25 15:48:05;;;;;;;2.15;0.90;;;;;;;;;;4989183;28;20023;-82
2024/02/25 15:51:05;;;;;;;2.40;0.90;;;;;;;;;;4958560;28;20118;-82
2024/02/25 15:53:53;;;;;;;1.42;0.73;;;;;;;;;;4987968;28;20050;-83
2024/02/25 16:00:27;;;;;;;3.85;1.10;;;;;;;;;;4901621;29;20066;-82
2024/02/25 16:03:59;;;;;;;2.78;1.05;;;;;;;;;;4919748;29;20035;-81
2024/02/25 16:07:34;;;;;;;2.88;1.20;;;;;;;;;;4917878;29;20040;-83
2024/02/25 16:10:43;;;;;;;3.10;1.35;;;;;;;;;;4900929;29;20089;-82
2024/02/25 16:14:28;;;;;;;3.03;1.20;;;;;;;;;;4899036;29;20174;-82
2024/02/25 16:17:15;;;;;;;4.28;1.05;;;;;;;;;;4897151;29;20040;-81
2024/02/25 16:20:38;;;;;;;2.70;1.23;;;;;;;;;;4899728;29;20076;-82
2024/02/25 16:26:22;;;;;;;5.68;1.50;;;;;;;;;;4995526;28;20070;-82
2024/02/25 16:28:59;;;;;;;2.45;1.33;;;;;;;;;;4979504;28;20027;-83
2024/02/25 16:32:46;;;;;;;3.47;1.63;;;;;;;;;;4995516;28;20026;-83
2024/02/25 16:35:30;;;;;;;2.45;1.20;;;;;;;;;;4979319;28;20167;-83
2024/02/25 16:38:55;;;;;;;5.13;1.33;;;;;;;;;;4929385;29;20028;-82
2024/02/25 16:46:08;;;;;;;2.15;0.98;;;;;;;;;;4975621;29;20027;-82
2024/02/25 16:49:29;;;;;;;2.50;1.30;;;;;;;;;;4976705;28;20019;-84
2024/02/25 16:52:59;;;;;;;1.85;0.90;;;;;;;;;;4955543;29;20463;-83
2024/02/25 16:58:49;;;;;;;2.72;0.90;;;;;;;;;;4975409;29;20031;-83
2024/02/25 17:01:56;;;;;;;4.88;1.52;;;;;;;;;;4948734;29;20406;-83
2024/02/25 17:05:10;;;;;;;2.95;1.40;;;;;;;;;;4977640;28;20043;-81
2024/02/25 17:08:16;;;;;;;3.17;1.40;;;;;;;;;;4950865;28;20090;-83
2024/02/25 17:11:22;;;;;;;3.90;2.20;;;;;;;;;;4961802;29;20031;-83
2024/02/25 17:14:29;;;;;;;4.65;1.63;;;;;;;;;;4976768;28;20071;-82
2024/02/25 17:18:02;;;;;;;;;;;;;;;;;;;;;
2024/02/25 17:25:38;;;;;;;4.32;2.00;;;;;;;;;;4954248;29;20086;-81
2024/02/25 17:29:10;;;;;;;6.13;1.80;;;;;;;;;;4803263;29;20087;-82
2024/02/25 17:32:31;;;;;;;2.88;1.50;;;;;;;;;;4770206;30;20171;-83
2024/02/25 17:36:07;;;;;;;2.97;1.50;;;;;;;;;;4769891;30;20221;-83
2024/02/25 17:40:20;;;;;;;3.75;1.33;;;;;;;;;;4789314;30;20321;-82
2024/02/25 17:43:34;;;;;;;2.85;1.38;;;;;;;;;;4784152;30;20114;-83
2024/02/25 17:46:33;;;;;;;3.10;1.40;;;;;;;;;;4774851;30;20050;-82
2024/02/25 17:49:29;;;;;;;6.60;1.70;;;;;;;;;;4790807;30;20040;-81
2024/02/25 17:52:57;;;;;;;6.03;1.40;;;;;;;;;;4789328;30;20027;-83
2024/02/25 17:55:56;;;;;;;5.65;1.98;;;;;;;;;;4790225;30;20039;-82
2024/02/25 17:59:23;;;;;;;6.68;2.38;;;;;;;;;;4782770;30;20043;-82
2024/02/25 18:02:38;;;;;;;4.82;2.10;;;;;;;;;;4788484;30;20044;-82
2024/02/25 18:06:02;;;;;;;6.95;2.30;;;;;;;;;;4841362;29;20045;-83
2024/02/25 18:13:08;;;;;;;4.68;2.00;;;;;;;;;;4874885;29;20040;-82
2024/02/25 18:16:42;;;;;;;9.07;4.10;;;;;;;;;;4905882;29;20040;-82
2024/02/25 18:20:22;;;;;;;8.32;3.80;;;;;;;;;;4914331;29;20048;-82
2024/02/25 18:24:14;;;;;;;6.78;3.22;;;;;;;;;;4874363;29;20108;-82
2024/02/25 18:28:13;;;;;;;8.30;3.30;;;;;;;;;;4887549;29;20085;-83
2024/02/25 18:31:48;;;;;;;9.00;3.58;;;;;;;;;;4889049;29;20048;-82
2024/02/25 18:35:27;;;;;;;9.25;4.05;;;;;;;;;;4833506;29;20050;-82
2024/02/25 18:38:45;;;;;;;10.23;4.47;;;;;;;;;;4829108;29;20039;-82
2024/02/25 18:42:06;;;;;;;10.38;4.50;;;;;;;;;;4840496;29;20042;-82
2024/02/25 18:49:02;;;;;;;11.20;5.07;;;;;;;;;;4841756;29;20067;-82
2024/02/25 18:52:11;;;;;;;12.23;4.40;;;;;;;;;;4841791;29;20102;-81
2024/02/25 19:13:27;;;;;;;10.25;5.72;;;;;;;;;;4912003;29;20484;-82
2024/02/25 19:16:44;;;;;;;13.48;6.32;;;;;;;;;;4896378;29;20033;-84
2024/02/25 19:20:27;;;;;;;13.57;6.90;;;;;;;;;;4952820;29;20039;-83
2024/02/25 19:24:10;;;;;;;11.25;6.03;;;;;;;;;;4960785;28;20100;-84
2024/02/25 19:35:24;;;;;;;15.18;7.53;;;;;;;;;;4906016;29;20033;-83
2024/02/25 19:39:03;;;;;;;;;;;;;;;;;;;;;
2024/02/25 19:42:24;;;;;;;13.18;6.55;;;;;;;;;;4880024;29;20037;-83
2024/02/25 19:45:12;;;;;;;10.70;5.43;;;;;;;;;;4992939;23;20050;-83
2024/02/25 19:48:31;;;;;;;14.20;4.97;;;;;;;;;;4965642;28;20042;-83
2024/02/25 19:52:09;;;;;;;11.10;4.70;;;;;;;;;;4995439;28;20063;-83
2024/02/25 19:55:50;;;;;;;10.45;4.20;;;;;;;;;;4965376;29;20108;-83
2024/02/25 20:03:14;;;;;;;8.65;3.67;;;;;;;;;;4977122;29;20035;-83
2024/02/25 20:07:02;;;;;;;8.18;3.80;;;;;;;;;;4909067;29;20071;-83
2024/02/25 20:11:00;;;;;;;11.32;4.10;;;;;;;;;;4892803;29;20066;-82
2024/02/25 20:20:38;;;;;;;10.65;4.13;;;;;;;;;;5038201;23;20055;-85
2024/02/25 20:24:04;;;;;;;;;;;;;;;;;;;;;
2024/02/25 20:27:02;;;;;;;8.30;3.30;;;;;;;;;;4948392;28;20018;-83
2024/02/25 20:30:08;;;;;;;5.88;3.28;;;;;;;;;;4981583;28;20041;-84
2024/02/25 20:33:11;;;;;;;8.52;3.95;;;;;;;;;;4990117;28;20422;-83
2024/02/25 20:36:11;;;;;;;7.95;3.42;;;;;;;;;;4964259;28;20041;-84
2024/02/25 20:38:53;;;;;;;7.82;3.65;;;;;;;;;;4979118;28;20034;-84
2024/02/25 20:41:40;;;;;;;8.82;2.95;;;;;;;;;;4977526;28;20039;-83
2024/02/25 20:44:33;;;;;;;7.75;4.50;;;;;;;;;;4961900;28;20039;-83
2024/02/25 20:47:06;;;;;;;7.50;3.83;;;;;;;;;;4976383;28;20041;-84
2024/02/25 20:49:51;;;;;;;8.77;3.25;;;;;;;;;;4980903;28;20026;-83
2024/02/25 20:52:33;;;;;;;9.43;3.10;;;;;;;;;;4963347;28;20105;-83
2024/02/25 20:55:35;;;;;;;7.22;3.22;;;;;;;;;;4961839;28;20030;-84
2024/02/25 21:02:59;;;;;;;11.82;4.05;;;;;;;;;;4981109;28;20039;-84
2024/02/25 21:10:14;;;;;;;;;;;;;;;;;;4974635;28;20033;-83
2024/02/25 21:13:34;;;;;;;7.55;3.53;;;;;;;;;;4993907;28;19917;-83
2024/02/25 21:17:17;;;;;;;8.52;3.47;;;;;;;;;;4993969;28;20092;-84
2024/02/25 21:20:37;;;;;;;9.18;3.75;;;;;;;;;;4993664;28;20030;-84
2024/02/25 21:23:24;;;;;;;8.75;4.25;;;;;;;;;;4976462;28;20042;-82
2024/02/25 21:27:03;;;;;;;8.60;3.58;;;;;;;;;;4994558;28;20061;-83
2024/02/25 21:30:11;;;;;;;15.88;7.25;;;;;;;;;;4990151;28;20043;-83
2024/02/25 21:33:13;;;;;;;18.25;7.68;;;;;;;;;;4960167;28;20038;-82
2024/02/25 21:36:33;;;;;;;7.18;3.60;;;;;;;;;;4987168;28;20065;-82
2024/02/25 21:39:31;;;;;;;7.10;3.50;;;;;;;;;;4978022;28;20034;-82
2024/02/25 21:48:57;;;;;;;6.28;3.13;;;;;;;;;;4992019;28;20118;-81
2024/02/25 21:51:52;;;;;;;7.55;3.65;;;;;;;;;;4993787;28;20041;-82
2024/02/25 21:55:04;;;;;;;8.13;3.38;;;;;;;;;;4982502;28;20026;-82
2024/02/25 21:57:51;;;;;;;10.65;3.58;;;;;;;;;;4994021;28;20035;-83
2024/02/25 22:00:37;;;;;;;6.60;3.63;;;;;;;;;;4962053;28;20035;-83